Buoy 52609

sailwx.info

Track history (hours):
 
Tides and Currents Weather Stations Pressure Air Temp Water Temp Dewpoint Dewpoint Depression Visibility Wind Speed Wind Dir Waves Ship Positions

Drifting buoy 52609

Last reported at 2014-Sep-30 18:00 UTC. Time now 2014-Sep-30 20:08 UTC.
Position N 15°08' E 154°43'.

Water temperature 29.4 ° C

Date/timePositionNaut miles runAvg speedWind from/ knotsBaromVisibWave heightAir tempDewpointWater temp
2014-Sep-30 18:00N 15°08' E 154°43'1 0.3 29.4
2014-Sep-30 16:00N 15°08' E 154°44'1 0.6 29.4
2014-Sep-30 15:00N 15°09' E 154°44'0 0.1 29.4
2014-Sep-30 12:00N 15°09' E 154°44'0 0.0 29.4
2014-Sep-30 11:00N 15°09' E 154°44'0 0.5 29.4
2014-Sep-30 10:00N 15°09' E 154°44'1 1.0 29.5
2014-Sep-30 09:00N 15°10' E 154°45'1 0.2 29.5
2014-Sep-30 06:00N 15°10' E 154°44'2 1.9 29.5
2014-Sep-30 05:00N 15°10' E 154°42'2 1.1 29.5
2014-Sep-30 03:00N 15°09' E 154°41'0 0.0 29.5
2014-Sep-30 00:00N 15°09' E 154°41'4 4.2 29.5
2014-Sep-29 23:00N 15°04' E 154°41'0 0.0 29.5
2014-Sep-29 22:00N 15°04' E 154°41'0 0.0 29.5
2014-Sep-29 20:00N 15°04' E 154°41'0 0.1 29.5
2014-Sep-29 19:00N 15°04' E 154°41'1 0.8 29.5
2014-Sep-29 18:00N 15°04' E 154°40'0 0.0 29.5
2014-Sep-29 16:00N 15°04' E 154°40'1 0.5 29.5
2014-Sep-29 14:00N 15°03' E 154°39'3 1.5 29.5
2014-Sep-29 12:00N 15°00' E 154°40'1 0.6 29.5
2014-Sep-29 10:00N 14°59' E 154°40'4 2.1 29.5
2014-Sep-29 08:00N 14°55' E 154°40'0 0.0 29.5
2014-Sep-29 07:00N 14°55' E 154°40'0 0.5 29.5
2014-Sep-29 06:00N 14°54' E 154°40'6 1.6 29.5
2014-Sep-29 02:00N 14°48' E 154°40'1 0.4 29.6
2014-Sep-28 23:00N 14°47' E 154°40'1 0.6 29.5
2014-Sep-28 22:00N 14°47' E 154°41'6 1.0 29.5
2014-Sep-28 16:00N 14°41' E 154°42'1 1.5 29.6
2014-Sep-28 15:00N 14°39' E 154°43'3 0.7 29.7
2014-Sep-28 11:00N 14°37' E 154°42'1 0.6 29.7
2014-Sep-28 10:00N 14°36' E 154°42'0 0.0 29.7
2014-Sep-28 09:00N 14°36' E 154°42'2 2.1 29.8
2014-Sep-28 08:00N 14°34' E 154°43'2 1.2 29.8
2014-Sep-28 06:00N 14°32' E 154°44'0 0.0 29.8
2014-Sep-28 05:00N 14°32' E 154°44'0 0.0 29.8
2014-Sep-28 04:00N 14°32' E 154°44'3 0.5 29.8
2014-Sep-27 23:00N 14°30' E 154°44'1 0.4 29.7
2014-Sep-27 20:00N 14°28' E 154°44'0 0.2 29.7
2014-Sep-27 19:00N 14°28' E 154°44'1 0.6 29.8
2014-Sep-27 17:00N 14°27' E 154°44'1 0.6 29.8
2014-Sep-27 15:00N 14°26' E 154°44'0 0.0 29.8
2014-Sep-27 14:00N 14°26' E 154°44'2 0.8 29.8
2014-Sep-27 11:00N 14°23' E 154°43'2 1.1 29.9
2014-Sep-27 09:00N 14°21' E 154°43'0 0.0 29.9
2014-Sep-27 07:00N 14°21' E 154°43'2 2.4 30.1
2014-Sep-27 06:00N 14°19' E 154°43'2 0.9 30.1
2014-Sep-27 04:00N 14°17' E 154°44'0 0.0 30.0
2014-Sep-27 02:00N 14°17' E 154°44'2 0.8 30.1
2014-Sep-27 00:00N 14°16' E 154°45'3 2.6 29.9
2014-Sep-26 23:00N 14°13' E 154°45'0 0.1 29.8
2014-Sep-26 20:00N 14°13' E 154°45'0 0.3 29.8
2014-Sep-26 19:00N 14°13' E 154°46'0 0.3 29.7
2014-Sep-26 18:00N 14°12' E 154°45'2 1.7 29.8
2014-Sep-26 17:00N 14°11' E 154°47'0 0.0 29.8
2014-Sep-26 15:00N 14°11' E 154°47'2 0.6 29.8
2014-Sep-26 11:00N 14°09' E 154°48'2 0.4 29.8
2014-Sep-26 07:00N 14°08' E 154°48'1 0.5 29.9
2014-Sep-26 04:00N 14°07' E 154°48'1 0.6 30.0
2014-Sep-26 03:00N 14°06' E 154°48'0 0.1 29.9
2014-Sep-26 02:00N 14°06' E 154°48'2 0.9 29.9
2014-Sep-26 00:00N 14°04' E 154°48'4 4.0 29.8
2014-Sep-25 23:00N 14°00' E 154°48'2 0.4 29.8
2014-Sep-25 19:00N 13°59' E 154°48'0 0.0 29.7
2014-Sep-25 17:00N 13°59' E 154°48'4 1.9 29.7
2014-Sep-25 15:00N 13°55' E 154°49'0 0.2 29.7
2014-Sep-25 12:00N 13°55' E 154°50'0 0.0 29.7
2014-Sep-25 11:00N 13°55' E 154°50'1 0.9 29.7
2014-Sep-25 10:00N 13°54' E 154°50'3 1.6 29.7
2014-Sep-25 08:00N 13°51' E 154°50'0 0.0 29.7
2014-Sep-25 07:00N 13°51' E 154°50'0 0.2 29.7
2014-Sep-25 06:00N 13°51' E 154°50'1 1.4 29.7
2014-Sep-25 05:00N 13°50' E 154°51'2 2.0 29.7
2014-Sep-25 04:00N 13°49' E 154°52'0 0.0 29.7
2014-Sep-25 03:00N 13°49' E 154°52'0 0.0 29.8
2014-Sep-25 02:00N 13°49' E 154°52'2 1.0 29.8
2014-Sep-25 00:00N 13°47' E 154°51'0 0.0 29.7
2014-Sep-24 23:00N 13°47' E 154°51'0 0.0 29.7
2014-Sep-24 22:00N 13°47' E 154°51'2 1.0 29.7
2014-Sep-24 20:00N 13°45' E 154°51'0 0.4 29.7
2014-Sep-24 19:00N 13°44' E 154°51'1 1.3 29.7
2014-Sep-24 18:00N 13°43' E 154°51'2 0.6 29.7
2014-Sep-24 15:00N 13°41' E 154°50'0 0.0 29.8
2014-Sep-24 12:00N 13°41' E 154°50'1 0.5 29.8
2014-Sep-24 10:00N 13°41' E 154°50'2 0.6 29.8
2014-Sep-24 07:00N 13°39' E 154°50'1 0.6 29.8
2014-Sep-24 05:00N 13°38' E 154°49'1 0.5 29.8
2014-Sep-24 03:00N 13°37' E 154°49'2 0.4 29.8
2014-Sep-23 23:00N 13°36' E 154°48'3 0.9 29.7
2014-Sep-23 20:00N 13°34' E 154°46'2 0.7 29.7
2014-Sep-23 17:00N 13°32' E 154°45'0 0.0 29.6
2014-Sep-23 16:00N 13°32' E 154°45'4 0.8 29.6
2014-Sep-23 11:00N 13°29' E 154°43'2 2.4 29.7
2014-Sep-23 10:00N 13°28' E 154°40'2 0.3 29.7
2014-Sep-23 05:00N 13°27' E 154°39'2 1.0 29.7
2014-Sep-23 03:00N 13°26' E 154°38'0 0.0 29.7
2014-Sep-23 02:00N 13°26' E 154°38'4 0.7 29.7
2014-Sep-22 20:00N 13°22' E 154°36'0 0.0 29.6
2014-Sep-22 19:00N 13°22' E 154°36'1 1.4 29.7
2014-Sep-22 18:00N 13°21' E 154°35'0 0.2 29.7
2014-Sep-22 16:00N 13°21' E 154°34'2 0.6 29.7
2014-Sep-22 12:00N 13°19' E 154°34'1 0.3 29.7
2014-Sep-22 10:00N 13°19' E 154°33'2 0.8 29.8
2014-Sep-22 08:00N 13°19' E 154°35'2 0.7 29.8
2014-Sep-22 05:00N 13°17' E 154°33'1 0.8 30.0
2014-Sep-22 04:00N 13°17' E 154°34'0 0.0 30.0
2014-Sep-22 03:00N 13°17' E 154°34'2 0.7 30.0
2014-Sep-22 00:00N 13°16' E 154°32'0 0.4 29.9
2014-Sep-21 23:00N 13°15' E 154°32'0 0.1 29.8
2014-Sep-21 20:00N 13°15' E 154°32'0 0.0 29.7
2014-Sep-21 19:00N 13°15' E 154°32'1 0.5 29.7
2014-Sep-21 18:00N 13°15' E 154°32'1 1.0 29.7
2014-Sep-21 17:00N 13°16' E 154°32'0 0.2 29.8
2014-Sep-21 16:00N 13°16' E 154°32'1 0.7 29.8
2014-Sep-21 15:00N 13°17' E 154°31'2 0.4 29.8
2014-Sep-21 11:00N 13°16' E 154°30'4 0.9 29.8
2014-Sep-21 06:00N 13°14' E 154°26'0 0.0 29.8
2014-Sep-21 05:00N 13°14' E 154°26'0 0.0 29.8
2014-Sep-21 03:00N 13°14' E 154°26'2 0.6 29.8
2014-Sep-21 00:00N 13°12' E 154°26'3 2.9 29.7
2014-Sep-20 23:00N 13°09' E 154°26'0 0.0 29.7
2014-Sep-20 22:00N 13°09' E 154°26'0 0.0 29.7
2014-Sep-20 20:00N 13°09' E 154°26'2 1.0 29.8
2014-Sep-20 18:00N 13°07' E 154°26'   29.8
Track history (hours):
 
Tides and Currents Weather Stations Pressure Air Temp Water Temp Dewpoint Dewpoint Depression Visibility Wind Speed Wind Dir Waves Ship Positions

Drifting buoy 52609

Last reported at 2014-Sep-30 18:00 UTC. Time now 2014-Sep-30 20:08 UTC.
Position N 15°08' E 154°43'.

Water temperature 29.4 ° C

Date/timePositionNaut miles runAvg speedWind from/ knotsBaromVisibWave heightAir tempDewpointWater temp
2014-Sep-30 18:00N 15°08' E 154°43'1 0.3 29.4
2014-Sep-30 16:00N 15°08' E 154°44'1 0.6 29.4
2014-Sep-30 15:00N 15°09' E 154°44'0 0.1 29.4
2014-Sep-30 12:00N 15°09' E 154°44'0 0.0 29.4
2014-Sep-30 11:00N 15°09' E 154°44'0 0.5 29.4
2014-Sep-30 10:00N 15°09' E 154°44'1 1.0 29.5
2014-Sep-30 09:00N 15°10' E 154°45'1 0.2 29.5
2014-Sep-30 06:00N 15°10' E 154°44'2 1.9 29.5
2014-Sep-30 05:00N 15°10' E 154°42'2 1.1 29.5
2014-Sep-30 03:00N 15°09' E 154°41'0 0.0 29.5
2014-Sep-30 00:00N 15°09' E 154°41'4 4.2 29.5
2014-Sep-29 23:00N 15°04' E 154°41'0 0.0 29.5
2014-Sep-29 22:00N 15°04' E 154°41'0 0.0 29.5
2014-Sep-29 20:00N 15°04' E 154°41'0 0.1 29.5
2014-Sep-29 19:00N 15°04' E 154°41'1 0.8 29.5
2014-Sep-29 18:00N 15°04' E 154°40'0 0.0 29.5
2014-Sep-29 16:00N 15°04' E 154°40'1 0.5 29.5
2014-Sep-29 14:00N 15°03' E 154°39'3 1.5 29.5
2014-Sep-29 12:00N 15°00' E 154°40'1 0.6 29.5
2014-Sep-29 10:00N 14°59' E 154°40'4 2.1 29.5
2014-Sep-29 08:00N 14°55' E 154°40'0 0.0 29.5
2014-Sep-29 07:00N 14°55' E 154°40'0 0.5 29.5
2014-Sep-29 06:00N 14°54' E 154°40'6 1.6 29.5
2014-Sep-29 02:00N 14°48' E 154°40'1 0.4 29.6
2014-Sep-28 23:00N 14°47' E 154°40'1 0.6 29.5
2014-Sep-28 22:00N 14°47' E 154°41'6 1.0 29.5
2014-Sep-28 16:00N 14°41' E 154°42'1 1.5 29.6
2014-Sep-28 15:00N 14°39' E 154°43'3 0.7 29.7
2014-Sep-28 11:00N 14°37' E 154°42'1 0.6 29.7
2014-Sep-28 10:00N 14°36' E 154°42'0 0.0 29.7
2014-Sep-28 09:00N 14°36' E 154°42'2 2.1 29.8
2014-Sep-28 08:00N 14°34' E 154°43'2 1.2 29.8
2014-Sep-28 06:00N 14°32' E 154°44'0 0.0 29.8
2014-Sep-28 05:00N 14°32' E 154°44'0 0.0 29.8
2014-Sep-28 04:00N 14°32' E 154°44'3 0.5 29.8
2014-Sep-27 23:00N 14°30' E 154°44'1 0.4 29.7
2014-Sep-27 20:00N 14°28' E 154°44'0 0.2 29.7
2014-Sep-27 19:00N 14°28' E 154°44'1 0.6 29.8
2014-Sep-27 17:00N 14°27' E 154°44'1 0.6 29.8
2014-Sep-27 15:00N 14°26' E 154°44'0 0.0 29.8
2014-Sep-27 14:00N 14°26' E 154°44'2 0.8 29.8
2014-Sep-27 11:00N 14°23' E 154°43'2 1.1 29.9
2014-Sep-27 09:00N 14°21' E 154°43'0 0.0 29.9
2014-Sep-27 07:00N 14°21' E 154°43'2 2.4 30.1
2014-Sep-27 06:00N 14°19' E 154°43'2 0.9 30.1
2014-Sep-27 04:00N 14°17' E 154°44'0 0.0 30.0
2014-Sep-27 02:00N 14°17' E 154°44'2 0.8 30.1
2014-Sep-27 00:00N 14°16' E 154°45'3 2.6 29.9
2014-Sep-26 23:00N 14°13' E 154°45'0 0.1 29.8
2014-Sep-26 20:00N 14°13' E 154°45'0 0.3 29.8
2014-Sep-26 19:00N 14°13' E 154°46'0 0.3 29.7
2014-Sep-26 18:00N 14°12' E 154°45'2 1.7 29.8
2014-Sep-26 17:00N 14°11' E 154°47'0 0.0 29.8
2014-Sep-26 15:00N 14°11' E 154°47'2 0.6 29.8
2014-Sep-26 11:00N 14°09' E 154°48'2 0.4 29.8
2014-Sep-26 07:00N 14°08' E 154°48'1 0.5 29.9
2014-Sep-26 04:00N 14°07' E 154°48'1 0.6 30.0
2014-Sep-26 03:00N 14°06' E 154°48'0 0.1 29.9
2014-Sep-26 02:00N 14°06' E 154°48'2 0.9 29.9
2014-Sep-26 00:00N 14°04' E 154°48'4 4.0 29.8
2014-Sep-25 23:00N 14°00' E 154°48'2 0.4 29.8
2014-Sep-25 19:00N 13°59' E 154°48'0 0.0 29.7
2014-Sep-25 17:00N 13°59' E 154°48'4 1.9 29.7
2014-Sep-25 15:00N 13°55' E 154°49'0 0.2 29.7
2014-Sep-25 12:00N 13°55' E 154°50'0 0.0 29.7
2014-Sep-25 11:00N 13°55' E 154°50'1 0.9 29.7
2014-Sep-25 10:00N 13°54' E 154°50'3 1.6 29.7
2014-Sep-25 08:00N 13°51' E 154°50'0 0.0 29.7
2014-Sep-25 07:00N 13°51' E 154°50'0 0.2 29.7
2014-Sep-25 06:00N 13°51' E 154°50'1 1.4 29.7
2014-Sep-25 05:00N 13°50' E 154°51'2 2.0 29.7
2014-Sep-25 04:00N 13°49' E 154°52'0 0.0 29.7
2014-Sep-25 03:00N 13°49' E 154°52'0 0.0 29.8
2014-Sep-25 02:00N 13°49' E 154°52'2 1.0 29.8
2014-Sep-25 00:00N 13°47' E 154°51'0 0.0 29.7
2014-Sep-24 23:00N 13°47' E 154°51'0 0.0 29.7
2014-Sep-24 22:00N 13°47' E 154°51'2 1.0 29.7
2014-Sep-24 20:00N 13°45' E 154°51'0 0.4 29.7
2014-Sep-24 19:00N 13°44' E 154°51'1 1.3 29.7
2014-Sep-24 18:00N 13°43' E 154°51'2 0.6 29.7
2014-Sep-24 15:00N 13°41' E 154°50'0 0.0 29.8
2014-Sep-24 12:00N 13°41' E 154°50'1 0.5 29.8
2014-Sep-24 10:00N 13°41' E 154°50'2 0.6 29.8
2014-Sep-24 07:00N 13°39' E 154°50'1 0.6 29.8
2014-Sep-24 05:00N 13°38' E 154°49'1 0.5 29.8
2014-Sep-24 03:00N 13°37' E 154°49'2 0.4 29.8
2014-Sep-23 23:00N 13°36' E 154°48'3 0.9 29.7
2014-Sep-23 20:00N 13°34' E 154°46'2 0.7 29.7
2014-Sep-23 17:00N 13°32' E 154°45'0 0.0 29.6
2014-Sep-23 16:00N 13°32' E 154°45'4 0.8 29.6
2014-Sep-23 11:00N 13°29' E 154°43'2 2.4 29.7
2014-Sep-23 10:00N 13°28' E 154°40'2 0.3 29.7
2014-Sep-23 05:00N 13°27' E 154°39'2 1.0 29.7
2014-Sep-23 03:00N 13°26' E 154°38'0 0.0 29.7
2014-Sep-23 02:00N 13°26' E 154°38'4 0.7 29.7
2014-Sep-22 20:00N 13°22' E 154°36'0 0.0 29.6
2014-Sep-22 19:00N 13°22' E 154°36'1 1.4 29.7
2014-Sep-22 18:00N 13°21' E 154°35'0 0.2 29.7
2014-Sep-22 16:00N 13°21' E 154°34'2 0.6 29.7
2014-Sep-22 12:00N 13°19' E 154°34'1 0.3 29.7
2014-Sep-22 10:00N 13°19' E 154°33'2 0.8 29.8
2014-Sep-22 08:00N 13°19' E 154°35'2 0.7 29.8
2014-Sep-22 05:00N 13°17' E 154°33'1 0.8 30.0
2014-Sep-22 04:00N 13°17' E 154°34'0 0.0 30.0
2014-Sep-22 03:00N 13°17' E 154°34'2 0.7 30.0
2014-Sep-22 00:00N 13°16' E 154°32'0 0.4 29.9
2014-Sep-21 23:00N 13°15' E 154°32'0 0.1 29.8
2014-Sep-21 20:00N 13°15' E 154°32'0 0.0 29.7
2014-Sep-21 19:00N 13°15' E 154°32'1 0.5 29.7
2014-Sep-21 18:00N 13°15' E 154°32'1 1.0 29.7
2014-Sep-21 17:00N 13°16' E 154°32'0 0.2 29.8
2014-Sep-21 16:00N 13°16' E 154°32'1 0.7 29.8
2014-Sep-21 15:00N 13°17' E 154°31'2 0.4 29.8
2014-Sep-21 11:00N 13°16' E 154°30'4 0.9 29.8
2014-Sep-21 06:00N 13°14' E 154°26'0 0.0 29.8
2014-Sep-21 05:00N 13°14' E 154°26'0 0.0 29.8
2014-Sep-21 03:00N 13°14' E 154°26'2 0.6 29.8
2014-Sep-21 00:00N 13°12' E 154°26'3 2.9 29.7
2014-Sep-20 23:00N 13°09' E 154°26'0 0.0 29.7
2014-Sep-20 22:00N 13°09' E 154°26'0 0.0 29.7
2014-Sep-20 20:00N 13°09' E 154°26'2 1.0 29.8
2014-Sep-20 18:00N 13°07' E 154°26'   29.8

Dump ship's entire track history